createdAt,value
2016-09-09T00:00:34.821Z,0
2016-09-09T00:01:34.835Z,0
2016-09-09T00:02:34.856Z,0
2016-09-09T00:03:34.875Z,0
2016-09-09T00:04:34.900Z,0
2016-09-09T00:05:34.946Z,0
2016-09-09T00:07:34.983Z,0
2016-09-09T00:08:35.026Z,0
2016-09-09T00:09:35.049Z,0
2016-09-09T00:10:35.057Z,0
2016-09-09T00:11:35.079Z,0
2016-09-09T00:12:35.118Z,0
2016-09-09T00:13:35.134Z,0
2016-09-09T00:14:35.173Z,0
2016-09-09T00:16:35.213Z,0
2016-09-09T00:17:50.167Z,0
2016-09-09T00:18:35.284Z,0
2016-09-09T00:19:35.300Z,0
2016-09-09T00:20:35.338Z,0
2016-09-09T00:21:35.343Z,0
2016-09-09T00:22:50.319Z,0
2016-09-09T00:23:35.401Z,0
2016-09-09T00:24:35.418Z,0
2016-09-09T00:25:35.479Z,0
2016-09-09T00:26:35.490Z,0
2016-09-09T00:27:35.506Z,0
2016-09-09T00:28:35.581Z,0
2016-09-09T00:29:35.559Z,0
2016-09-09T00:30:35.595Z,0
2016-09-09T00:31:35.624Z,0
2016-09-09T00:32:50.561Z,0
2016-09-09T00:33:35.694Z,0
2016-09-09T00:34:35.683Z,0
2016-09-09T00:36:35.756Z,0
2016-09-09T00:37:50.690Z,0
2016-09-09T00:38:35.812Z,0
2016-09-09T00:39:35.812Z,0
2016-09-09T00:40:50.779Z,0
2016-09-09T00:41:50.796Z,0
2016-09-09T00:42:35.890Z,0
2016-09-09T00:43:35.944Z,0
2016-09-09T00:44:35.945Z,0
2016-09-09T00:45:35.967Z,0
2016-09-09T00:47:36.019Z,0
2016-09-09T00:48:36.064Z,0
2016-09-09T00:49:36.082Z,0
2016-09-09T00:50:36.110Z,0
2016-09-09T00:51:36.127Z,0
2016-09-09T00:52:51.077Z,0
2016-09-09T00:53:36.196Z,0
2016-09-09T00:55:36.229Z,0
2016-09-09T00:56:36.276Z,0
2016-09-09T00:57:36.278Z,0
2016-09-09T00:58:36.355Z,0
2016-09-09T00:59:36.329Z,0
2016-09-09T01:00:36.370Z,0
2016-09-09T01:01:36.393Z,0
2016-09-09T01:02:36.411Z,0
2016-09-09T01:03:36.502Z,0
2016-09-09T01:04:36.477Z,0
2016-09-09T01:05:36.498Z,0
2016-09-09T01:06:36.510Z,0
2016-09-09T01:07:36.544Z,0
2016-09-09T01:08:36.568Z,0
2016-09-09T01:09:51.539Z,0
2016-09-09T01:10:36.614Z,0
2016-09-09T01:11:36.644Z,0
2016-09-09T01:12:36.666Z,0
2016-09-09T01:13:36.687Z,0
2016-09-09T01:14:36.726Z,0
2016-09-09T01:15:36.739Z,0
2016-09-09T01:16:36.772Z,0
2016-09-09T01:18:36.824Z,0
2016-09-09T01:19:36.871Z,0
2016-09-09T01:20:36.879Z,0
2016-09-09T01:21:36.920Z,0
2016-09-09T01:22:36.960Z,0
2016-09-09T01:23:36.947Z,0
2016-09-09T01:24:36.988Z,0
2016-09-09T01:25:51.930Z,0
2016-09-09T01:26:37.054Z,0
2016-09-09T01:27:37.059Z,0
2016-09-09T01:28:37.095Z,0
2016-09-09T01:29:37.105Z,0
2016-09-09T01:30:37.220Z,0
2016-09-09T01:31:37.166Z,0
2016-09-09T01:32:37.186Z,0
2016-09-09T01:33:37.221Z,0
2016-09-09T01:34:37.241Z,0
2016-09-09T01:35:37.275Z,0
2016-09-09T01:36:37.301Z,0
2016-09-09T01:37:37.337Z,0
2016-09-09T01:39:37.373Z,0
2016-09-09T01:40:37.417Z,0
2016-09-09T01:41:52.337Z,0
2016-09-09T01:42:37.452Z,0
2016-09-09T01:43:37.497Z,0
2016-09-09T01:44:37.503Z,0
2016-09-09T01:45:37.523Z,0
2016-09-09T01:46:37.844Z,0
2016-09-09T01:47:37.596Z,0
2016-09-09T01:48:37.594Z,0
2016-09-09T01:49:37.653Z,0
2016-09-09T01:51:37.683Z,0
2016-09-09T01:53:52.655Z,0
2016-09-09T01:54:37.776Z,0
2016-09-09T01:55:37.785Z,0
2016-09-09T01:56:37.794Z,0
2016-09-09T01:57:52.749Z,0
2016-09-09T01:58:52.780Z,0
2016-09-09T01:59:37.929Z,0
2016-09-09T02:00:37.902Z,0
2016-09-09T02:01:38.019Z,0
2016-09-09T02:02:37.955Z,0
2016-09-09T02:03:37.985Z,0
2016-09-09T02:04:38.008Z,0
2016-09-09T02:05:38.046Z,0
2016-09-09T02:06:38.075Z,0
2016-09-09T02:07:38.078Z,0
2016-09-09T02:09:38.162Z,0
2016-09-09T02:10:38.171Z,0
2016-09-09T02:11:38.200Z,0
2016-09-09T02:12:53.132Z,0
2016-09-09T02:13:38.241Z,0
2016-09-09T02:14:38.276Z,0
2016-09-09T02:15:38.317Z,0
2016-09-09T02:16:38.316Z,0
2016-09-09T02:18:38.373Z,0
2016-09-09T02:19:53.325Z,0
2016-09-09T02:20:38.435Z,0
2016-09-09T02:21:53.390Z,0
2016-09-09T02:22:53.396Z,0
2016-09-09T02:23:38.530Z,0
2016-09-09T02:24:38.518Z,0
2016-09-09T02:25:38.580Z,0
2016-09-09T02:26:38.573Z,0
2016-09-09T02:27:38.600Z,0
2016-09-09T02:30:38.691Z,0
2016-09-09T02:31:53.652Z,0
2016-09-09T02:32:38.728Z,0
2016-09-09T02:33:38.761Z,0
2016-09-09T02:34:54.083Z,0
2016-09-09T02:35:38.815Z,0
2016-09-09T02:36:53.777Z,0
2016-09-09T02:37:38.847Z,0
2016-09-09T02:38:38.888Z,0
2016-09-09T02:39:38.903Z,0
2016-09-09T02:40:38.967Z,0
2016-09-09T02:41:38.972Z,0
2016-09-09T02:42:38.985Z,0
2016-09-09T02:43:39.025Z,0
2016-09-09T02:44:53.955Z,0
2016-09-09T02:45:39.052Z,0
2016-09-09T02:46:39.085Z,0
2016-09-09T02:47:39.123Z,0
2016-09-09T02:48:39.127Z,0
2016-09-09T02:49:39.149Z,0
2016-09-09T02:50:39.209Z,0
2016-09-09T02:51:39.201Z,0
2016-09-09T02:52:39.254Z,0
2016-09-09T02:53:39.268Z,0
2016-09-09T02:54:39.293Z,0
2016-09-09T02:55:39.317Z,0
2016-09-09T02:56:39.340Z,0
2016-09-09T02:57:39.376Z,0
2016-09-09T02:58:39.393Z,0
2016-09-09T02:59:39.445Z,0
2016-09-09T03:00:54.365Z,0
2016-09-09T03:01:39.501Z,0
2016-09-09T03:02:54.406Z,0
2016-09-09T03:03:54.447Z,0
2016-09-09T03:04:39.533Z,0
2016-09-09T03:05:39.577Z,0
2016-09-09T03:06:39.588Z,0
2016-09-09T03:07:39.639Z,0
2016-09-09T03:08:39.712Z,0
2016-09-09T03:09:39.677Z,0
2016-09-09T03:10:39.694Z,0
2016-09-09T03:11:39.719Z,0
2016-09-09T03:12:39.768Z,0
2016-09-09T03:13:39.764Z,0
2016-09-09T03:14:39.818Z,0
2016-09-09T03:15:54.788Z,0
2016-09-09T03:16:54.769Z,0
2016-09-09T03:17:39.878Z,0
2016-09-09T03:18:39.893Z,0
2016-09-09T03:19:39.939Z,0
2016-09-09T03:20:39.943Z,0
2016-09-09T03:22:40.006Z,0
2016-09-09T03:23:40.033Z,0
2016-09-09T03:24:40.071Z,0
2016-09-09T03:25:40.067Z,0
2016-09-09T03:26:40.108Z,0
2016-09-09T03:27:40.134Z,0
2016-09-09T03:28:40.146Z,0
2016-09-09T03:29:40.210Z,0
2016-09-09T03:30:40.197Z,0
2016-09-09T03:31:40.239Z,0
2016-09-09T03:32:55.169Z,0
2016-09-09T03:33:40.298Z,0
2016-09-09T03:34:40.300Z,0
2016-09-09T03:35:40.343Z,0
2016-09-09T03:36:40.359Z,0
2016-09-09T03:37:55.321Z,0
2016-09-09T03:38:55.354Z,0
2016-09-09T03:39:40.421Z,0
2016-09-09T03:40:40.480Z,0
2016-09-09T03:41:55.406Z,0
2016-09-09T03:42:55.435Z,0
2016-09-09T03:43:40.523Z,0
2016-09-09T03:44:55.487Z,0
2016-09-09T03:45:40.627Z,0
2016-09-09T03:46:40.618Z,0
2016-09-09T03:47:55.568Z,0
2016-09-09T03:48:40.677Z,0
2016-09-09T03:49:40.685Z,0
2016-09-09T03:50:40.713Z,0
2016-09-09T03:51:40.739Z,0
2016-09-09T03:52:55.695Z,4
2016-09-09T03:53:40.778Z,4
2016-09-09T03:54:40.799Z,0
2016-09-09T03:55:40.826Z,4
2016-09-09T03:56:40.852Z,4
2016-09-09T03:57:40.886Z,4
2016-09-09T03:59:40.929Z,4
2016-09-09T04:00:55.898Z,8
2016-09-09T04:01:41.001Z,8
2016-09-09T04:02:41.009Z,8
2016-09-09T04:05:41.147Z,12
2016-09-09T04:06:41.103Z,16
2016-09-09T04:07:41.151Z,16
2016-09-09T04:08:56.093Z,24
2016-09-09T04:09:56.115Z,28
2016-09-09T04:10:41.216Z,28
2016-09-09T04:11:41.252Z,36
2016-09-09T04:12:41.268Z,44
2016-09-09T04:13:41.282Z,52
2016-09-09T04:14:41.318Z,56
2016-09-09T04:15:41.396Z,64
2016-09-09T04:16:41.399Z,72
2016-09-09T04:17:56.308Z,88
2016-09-09T04:18:41.437Z,92
2016-09-09T04:19:56.364Z,108
2016-09-09T04:20:41.460Z,116
2016-09-09T04:21:41.507Z,132
2016-09-09T04:22:56.445Z,152
2016-09-09T04:23:41.551Z,160
2016-09-09T04:24:56.494Z,180
2016-09-09T04:26:41.616Z,216
2016-09-09T04:27:41.968Z,236
2016-09-09T04:28:41.666Z,256
2016-09-09T04:29:41.702Z,272
2016-09-09T04:30:41.722Z,296
2016-09-09T04:31:41.762Z,320
2016-09-09T04:32:42.068Z,348
2016-09-09T04:33:41.807Z,368
2016-09-09T04:34:41.812Z,400
2016-09-09T04:35:56.770Z,436
2016-09-09T04:36:56.789Z,468
2016-09-09T04:38:41.914Z,532
2016-09-09T04:39:41.939Z,568
2016-09-09T04:41:42.010Z,652
2016-09-09T04:42:42.008Z,700
2016-09-09T04:43:42.037Z,756
2016-09-09T04:44:42.067Z,804
2016-09-09T04:45:42.101Z,864
2016-09-09T04:47:11.966Z,960
2016-09-09T04:47:42.163Z,992
2016-09-09T04:48:42.177Z,1060
2016-09-09T04:49:42.222Z,1132
2016-09-09T04:50:42.210Z,1204
2016-09-09T04:51:57.173Z,1280
2016-09-09T04:52:42.274Z,1336
2016-09-09T04:54:42.313Z,1528
2016-09-09T04:55:42.354Z,1624
2016-09-09T04:57:42.406Z,1812
2016-09-09T04:58:42.459Z,1916
2016-09-09T04:59:42.443Z,2016
2016-09-09T05:00:57.411Z,2156
2016-09-09T05:01:42.487Z,2240
2016-09-09T05:02:42.521Z,2352
2016-09-09T05:03:42.541Z,2468
2016-09-09T05:04:42.590Z,2580
2016-09-09T05:05:42.601Z,2692
2016-09-09T05:06:57.617Z,2836
2016-09-09T05:07:57.584Z,2944
2016-09-09T05:08:42.668Z,3016
2016-09-09T05:09:42.728Z,3112
2016-09-09T05:10:42.728Z,3236
2016-09-09T05:11:42.766Z,3372
2016-09-09T05:12:42.782Z,3580
2016-09-09T05:13:42.814Z,3728
2016-09-09T05:14:42.824Z,3816
2016-09-09T05:15:42.894Z,3864
2016-09-09T05:16:42.881Z,3888
2016-09-09T05:17:42.891Z,3852
2016-09-09T05:18:42.927Z,3544
2016-09-09T05:19:42.978Z,3356
2016-09-09T05:20:42.979Z,3516
2016-09-09T05:21:43.022Z,3944
2016-09-09T05:22:57.948Z,4748
2016-09-09T05:23:43.069Z,5264
2016-09-09T05:24:43.081Z,5492
2016-09-09T05:25:43.117Z,6240
2016-09-09T05:26:58.060Z,6512
2016-09-09T05:27:43.158Z,6428
2016-09-09T05:28:43.199Z,6104
2016-09-09T05:29:43.259Z,6308
2016-09-09T05:30:43.253Z,6496
2016-09-09T05:31:43.258Z,6508
2016-09-09T05:32:43.283Z,6516
2016-09-09T05:33:43.303Z,6548
2016-09-09T05:34:43.358Z,6796
2016-09-09T05:35:43.368Z,6872
2016-09-09T05:36:58.315Z,6852
2016-09-09T05:37:43.437Z,6808
2016-09-09T05:38:43.441Z,6976
2016-09-09T05:39:43.485Z,7792
2016-09-09T05:40:43.487Z,7868
2016-09-09T05:42:43.540Z,7976
2016-09-09T05:43:43.574Z,8180
2016-09-09T05:44:43.597Z,8780
2016-09-09T05:45:43.627Z,8764
2016-09-09T05:46:43.651Z,8632
2016-09-09T05:47:43.685Z,8860
2016-09-09T05:48:58.625Z,10904
2016-09-09T05:49:43.720Z,15200
2016-09-09T05:50:43.749Z,22976
2016-09-09T05:51:43.801Z,26016
2016-09-09T05:52:44.136Z,26560
2016-09-09T05:53:43.839Z,25888
2016-09-09T05:54:58.785Z,24032
2016-09-09T05:55:58.804Z,24224
2016-09-09T05:56:43.923Z,24352
2016-09-09T05:57:43.934Z,25376
2016-09-09T05:58:43.993Z,27872
2016-09-09T05:59:43.999Z,31456
2016-09-09T06:00:44.035Z,32320
2016-09-09T06:01:44.044Z,32128
2016-09-09T06:02:44.069Z,33600
2016-09-09T06:04:59.067Z,33888
2016-09-09T06:05:44.183Z,33632
2016-09-09T06:06:44.188Z,34752
2016-09-09T06:07:44.306Z,36384
2016-09-09T06:08:59.182Z,36960
2016-09-09T06:09:44.282Z,37088
2016-09-09T06:10:59.234Z,38048
2016-09-09T06:11:44.341Z,39168
2016-09-09T06:12:44.386Z,37824
2016-09-09T06:13:59.340Z,35360
2016-09-09T06:14:44.439Z,35968
2016-09-09T06:15:59.420Z,39136
2016-09-09T06:16:44.512Z,40576
2016-09-09T06:18:44.631Z,41216
2016-09-09T06:19:44.598Z,40480
2016-09-09T06:20:44.617Z,40096
2016-09-09T06:21:59.586Z,41120
2016-09-09T06:22:44.723Z,41696
2016-09-09T06:23:44.731Z,42304
2016-09-09T06:25:44.837Z,42912
2016-09-09T06:26:59.758Z,43264
2016-09-09T06:27:59.781Z,45184
2016-09-09T06:28:44.905Z,45504
2016-09-09T06:29:44.927Z,45632
2016-09-09T06:30:44.950Z,45376
2016-09-09T06:31:45.034Z,45216
2016-09-09T06:32:45.335Z,46112
2016-09-09T06:33:45.040Z,46784
2016-09-09T06:35:45.129Z,47168
2016-09-09T06:36:45.156Z,48032
2016-09-09T06:37:45.204Z,47296
2016-09-09T06:38:45.222Z,47104
2016-09-09T06:39:45.262Z,47264
2016-09-09T06:40:45.613Z,48384
2016-09-09T06:41:45.313Z,49536
2016-09-09T06:43:00.288Z,50464
2016-09-09T06:43:45.396Z,52128
2016-09-09T06:44:45.437Z,51136
2016-09-09T06:46:00.682Z,48576
2016-09-09T06:46:45.492Z,48448
2016-09-09T06:48:00.471Z,50304
2016-09-09T06:48:45.551Z,51040
2016-09-09T06:49:45.609Z,50656
2016-09-09T06:50:45.635Z,51904
2016-09-09T06:51:45.662Z,53056
2016-09-09T06:52:45.695Z,51808
2016-09-09T06:53:45.731Z,51936
2016-09-09T06:54:45.786Z,52256
2016-09-09T06:55:45.802Z,51168
2016-09-09T06:56:45.859Z,53920
2016-09-09T06:59:00.841Z,51200
2016-09-09T06:59:45.963Z,49568
2016-09-09T07:00:45.977Z,50176
2016-09-09T07:02:00.978Z,49856
2016-09-09T07:02:46.051Z,51008
2016-09-09T07:03:46.101Z,51168
2016-09-09T07:06:01.084Z,50432
2016-09-09T07:06:46.204Z,49600
2016-09-09T07:07:46.237Z,50592
2016-09-09T07:08:46.266Z,50880
2016-09-09T07:09:46.294Z,51360
2016-09-09T07:10:46.334Z,50144
2016-09-09T07:11:46.369Z,50368
2016-09-09T07:12:46.402Z,50752
2016-09-09T07:13:46.458Z,49024
2016-09-09T07:15:01.392Z,46656
2016-09-09T07:16:01.425Z,48544
2016-09-09T07:16:46.556Z,48832
2016-09-09T07:17:46.574Z,47776
2016-09-09T07:18:46.606Z,49120
2016-09-09T07:19:46.666Z,47808
2016-09-09T07:20:46.683Z,47680
2016-09-09T07:21:46.740Z,48576
2016-09-09T07:23:46.792Z,47872
2016-09-09T07:24:46.822Z,48576
2016-09-09T07:27:01.819Z,47008
2016-09-09T07:28:01.854Z,45952
2016-09-09T07:28:46.988Z,47584
2016-09-09T07:30:01.921Z,46976
2016-09-09T07:30:47.360Z,46304
2016-09-09T07:31:47.069Z,46624
2016-09-09T07:32:47.191Z,45408
2016-09-09T07:33:47.190Z,43488
2016-09-09T07:34:47.236Z,46240
2016-09-09T07:35:47.223Z,45824
2016-09-09T07:36:47.561Z,43808
2016-09-09T07:38:47.338Z,45824
2016-09-09T07:39:47.365Z,45088
2016-09-09T07:40:47.392Z,42944
2016-09-09T07:41:47.422Z,42880
2016-09-09T07:43:47.519Z,43104
2016-09-09T07:44:47.538Z,43456
2016-09-09T07:46:02.501Z,42464
2016-09-09T07:47:02.534Z,42624
2016-09-09T07:47:47.644Z,42144
2016-09-09T07:48:47.673Z,42496
2016-09-09T07:49:47.706Z,43488
2016-09-09T07:50:47.757Z,41056
2016-09-09T07:51:47.776Z,41632
2016-09-09T07:52:47.842Z,41888
2016-09-09T07:53:47.869Z,40480
2016-09-09T07:54:47.910Z,38752
2016-09-09T07:55:47.923Z,40000
2016-09-09T07:56:47.960Z,42144
2016-09-09T07:57:48.010Z,41760
2016-09-09T07:59:48.087Z,39808
2016-09-09T08:00:48.441Z,39808
2016-09-09T08:02:03.057Z,39584
2016-09-09T08:02:48.201Z,39936
2016-09-09T08:04:48.245Z,41632
2016-09-09T08:05:48.594Z,39936
2016-09-09T08:06:48.370Z,38304
2016-09-09T08:07:48.349Z,38688
2016-09-09T08:08:48.398Z,38240
2016-09-09T08:09:48.427Z,37248
2016-09-09T08:10:48.457Z,36032
2016-09-09T08:11:48.483Z,36288
2016-09-09T08:12:48.532Z,37120
2016-09-09T08:13:48.559Z,36064
2016-09-09T08:14:48.613Z,36384
2016-09-09T08:15:48.626Z,35840
2016-09-09T08:16:48.693Z,35360
2016-09-09T08:18:03.626Z,33408
2016-09-09T08:19:03.663Z,34368
2016-09-09T08:19:48.775Z,34560
2016-09-09T08:21:48.848Z,33664
2016-09-09T08:22:48.895Z,33536
2016-09-09T08:23:48.905Z,32576
2016-09-09T08:24:48.954Z,32416
2016-09-09T08:25:48.999Z,31584
2016-09-09T08:26:49.074Z,31296
2016-09-09T08:27:49.085Z,30912
2016-09-09T08:28:49.078Z,31520
2016-09-09T08:29:49.139Z,31712
2016-09-09T08:31:04.079Z,29056
2016-09-09T08:31:49.198Z,28416
2016-09-09T08:33:04.151Z,27168
2016-09-09T08:33:49.257Z,26752
2016-09-09T08:34:49.297Z,25696
2016-09-09T08:35:49.335Z,24608
2016-09-09T08:36:49.372Z,23424
2016-09-09T08:37:49.417Z,22688
2016-09-09T08:38:49.479Z,22528
2016-09-09T08:39:49.486Z,22496
2016-09-09T08:40:49.498Z,22272
2016-09-09T08:41:49.544Z,22240
2016-09-09T08:42:49.574Z,22080
2016-09-09T08:43:49.615Z,21984
2016-09-09T08:45:04.574Z,21760
2016-09-09T08:45:49.681Z,21792
2016-09-09T08:46:49.732Z,21696
2016-09-09T08:47:49.747Z,21600
2016-09-09T08:48:49.792Z,21536
2016-09-09T08:49:49.817Z,21248
2016-09-09T08:51:49.904Z,21088
2016-09-09T08:52:49.918Z,21152
2016-09-09T08:54:04.906Z,20992
2016-09-09T08:54:49.987Z,20768
2016-09-09T08:55:50.335Z,20800
2016-09-09T08:56:50.055Z,20704
2016-09-09T08:57:50.104Z,20576
2016-09-09T08:58:50.157Z,20480
2016-09-09T08:59:50.166Z,20480
2016-09-09T09:00:50.203Z,20288
2016-09-09T09:01:50.238Z,20448
2016-09-09T09:03:05.198Z,20128
2016-09-09T09:03:50.297Z,19680
2016-09-09T09:05:05.260Z,19904
2016-09-09T09:05:50.406Z,19776
2016-09-09T09:06:50.412Z,19232
2016-09-09T09:08:05.391Z,19264
2016-09-09T09:08:50.466Z,19680
2016-09-09T09:09:50.526Z,19296
2016-09-09T09:10:50.549Z,20000
2016-09-09T09:12:50.610Z,20640
2016-09-09T09:14:50.692Z,19168
2016-09-09T09:15:50.739Z,18496
2016-09-09T09:16:50.787Z,18752
2016-09-09T09:17:50.784Z,19616
2016-09-09T09:18:50.823Z,19424
2016-09-09T09:19:50.875Z,19456
2016-09-09T09:21:05.824Z,19488
2016-09-09T09:21:50.949Z,19136
2016-09-09T09:23:05.879Z,19104
2016-09-09T09:23:51.007Z,18816
2016-09-09T09:24:51.026Z,18880
2016-09-09T09:25:51.072Z,18688
2016-09-09T09:26:51.104Z,18528
2016-09-09T09:27:51.182Z,18112
2016-09-09T09:28:51.164Z,18080
2016-09-09T09:29:51.210Z,18048
2016-09-09T09:30:51.234Z,17920
2016-09-09T09:31:51.306Z,17920
2016-09-09T09:33:51.344Z,17664
2016-09-09T09:35:06.297Z,17408
2016-09-09T09:35:51.415Z,17472
2016-09-09T09:37:06.370Z,17068
2016-09-09T09:37:51.477Z,16888
2016-09-09T09:39:06.430Z,16936
2016-09-09T09:40:51.628Z,16520
2016-09-09T09:41:51.665Z,16296
2016-09-09T09:42:51.653Z,16424
2016-09-09T09:43:51.676Z,16576
2016-09-09T09:44:51.719Z,16248
2016-09-09T09:45:51.757Z,16356
2016-09-09T09:46:51.793Z,16060
2016-09-09T09:47:51.816Z,16048
2016-09-09T09:48:51.853Z,15904
2016-09-09T09:49:51.889Z,15836
2016-09-09T09:50:51.923Z,15788
2016-09-09T09:51:51.960Z,15640
2016-09-09T09:53:06.930Z,15660
2016-09-09T09:53:52.030Z,15532
2016-09-09T09:54:52.066Z,15444
2016-09-09T09:55:52.093Z,15196
2016-09-09T09:56:52.130Z,15116
2016-09-09T09:58:07.104Z,14960
2016-09-09T09:58:52.209Z,15060
2016-09-09T09:59:52.232Z,14924
2016-09-09T10:00:52.267Z,14788
2016-09-09T10:01:52.303Z,14796
2016-09-09T10:03:07.266Z,14956
2016-09-09T10:03:52.371Z,14748
2016-09-09T10:04:52.409Z,14584
2016-09-09T10:05:52.441Z,14388
2016-09-09T10:06:52.470Z,14236
2016-09-09T10:08:07.431Z,14460
2016-09-09T10:08:52.538Z,14352
2016-09-09T10:09:52.578Z,14380
2016-09-09T10:10:52.611Z,14368
2016-09-09T10:11:52.641Z,14164
2016-09-09T10:12:52.673Z,14200
2016-09-09T10:13:52.718Z,13916
2016-09-09T10:14:52.755Z,14040
2016-09-09T10:15:52.786Z,14008
2016-09-09T10:16:52.812Z,13948
2016-09-09T10:17:52.845Z,13848
2016-09-09T10:18:52.876Z,13880
2016-09-09T10:19:52.914Z,13744
2016-09-09T10:20:52.946Z,13544
2016-09-09T10:22:07.911Z,13596
2016-09-09T10:22:53.014Z,13604
2016-09-09T10:24:07.978Z,13260
2016-09-09T10:24:53.087Z,12952
2016-09-09T10:25:53.119Z,12812
2016-09-09T10:26:53.152Z,12808
2016-09-09T10:27:53.189Z,12916
2016-09-09T10:28:53.216Z,12536
2016-09-09T10:29:53.260Z,12464
2016-09-09T10:30:53.291Z,12484
2016-09-09T10:31:53.330Z,12176
2016-09-09T10:32:53.351Z,12244
2016-09-09T10:33:53.386Z,12312
2016-09-09T10:35:08.400Z,11952
2016-09-09T10:35:53.458Z,12052
2016-09-09T10:36:53.496Z,11972
2016-09-09T10:37:53.524Z,11940
2016-09-09T10:38:53.561Z,11852
2016-09-09T10:40:08.509Z,11724
2016-09-09T10:40:53.625Z,11844
2016-09-09T10:41:53.657Z,11544
2016-09-09T10:43:53.723Z,10592
2016-09-09T10:44:53.753Z,10576
2016-09-09T10:46:53.829Z,9944
2016-09-09T10:48:53.888Z,9544
2016-09-09T10:50:08.848Z,9408
2016-09-09T10:50:53.956Z,9184
2016-09-09T10:51:53.981Z,8928
2016-09-09T10:52:54.024Z,8816
2016-09-09T10:53:54.053Z,8672
2016-09-09T10:55:09.009Z,8596
2016-09-09T10:56:09.039Z,8524
2016-09-09T10:56:54.148Z,8548
2016-09-09T10:58:09.101Z,8696
2016-09-09T10:58:54.219Z,8668
2016-09-09T10:59:54.248Z,8672
2016-09-09T11:00:54.276Z,8600
2016-09-09T11:01:54.310Z,8604
2016-09-09T11:02:54.344Z,8632
2016-09-09T11:05:54.441Z,8652
2016-09-09T11:06:54.470Z,8800
2016-09-09T11:07:54.510Z,8916
2016-09-09T11:08:54.538Z,8780
2016-09-09T11:09:54.577Z,8796
2016-09-09T11:10:54.609Z,8700
2016-09-09T11:12:09.562Z,8720
2016-09-09T11:12:54.667Z,8736
2016-09-09T11:13:54.709Z,8716
2016-09-09T11:14:54.726Z,8552
2016-09-09T11:15:54.761Z,8548
2016-09-09T11:16:54.795Z,8292
2016-09-09T11:17:54.827Z,8132
2016-09-09T11:20:54.931Z,7404
2016-09-09T11:21:54.948Z,7736
2016-09-09T11:22:54.989Z,6984
2016-09-09T11:23:55.016Z,6364
2016-09-09T11:25:55.084Z,6396
2016-09-09T11:26:55.116Z,6504
2016-09-09T11:28:55.179Z,7464
2016-09-09T11:29:55.202Z,7044
2016-09-09T11:30:55.243Z,6912
2016-09-09T11:31:55.276Z,6784
2016-09-09T11:32:55.313Z,6860
2016-09-09T11:33:55.341Z,6888
2016-09-09T11:34:55.375Z,7004
2016-09-09T11:36:10.335Z,7092
2016-09-09T11:36:55.443Z,7108
2016-09-09T11:37:55.461Z,7192
2016-09-09T11:39:10.426Z,7276
2016-09-09T11:39:55.547Z,7456
2016-09-09T11:40:55.563Z,8552
2016-09-09T11:43:10.557Z,7932
2016-09-09T11:43:55.657Z,7724
2016-09-09T11:44:55.689Z,7744
2016-09-09T11:45:56.316Z,7404
2016-09-09T11:46:55.755Z,7172
2016-09-09T11:48:55.815Z,7652
2016-09-09T11:49:55.872Z,6952
2016-09-09T11:50:55.888Z,7112
2016-09-09T11:51:55.913Z,7356
2016-09-09T11:52:55.948Z,8000
2016-09-09T11:53:55.979Z,7944
2016-09-09T11:54:56.010Z,7164
2016-09-09T11:55:56.042Z,7124
2016-09-09T11:56:56.069Z,7616
2016-09-09T11:57:56.107Z,7004
2016-09-09T11:58:56.143Z,6940
2016-09-09T11:59:56.175Z,6920
2016-09-09T12:00:56.200Z,6852
2016-09-09T12:01:56.238Z,6784
2016-09-09T12:02:56.278Z,7056
2016-09-09T12:03:56.292Z,6352
2016-09-09T12:04:56.318Z,6380
2016-09-09T12:05:56.360Z,6652
2016-09-09T12:06:56.383Z,6628
2016-09-09T12:07:56.423Z,6600
2016-09-09T12:09:56.483Z,6696
2016-09-09T12:10:56.513Z,6844
2016-09-09T12:11:56.535Z,7008
2016-09-09T12:12:56.581Z,8584
2016-09-09T12:13:56.611Z,8628
2016-09-09T12:15:11.565Z,8820
2016-09-09T12:15:56.681Z,8708
2016-09-09T12:16:56.702Z,8392
2016-09-09T12:17:56.743Z,6668
2016-09-09T12:18:56.756Z,6532
2016-09-09T12:19:56.791Z,6408
2016-09-09T12:20:56.831Z,6356
2016-09-09T12:21:56.862Z,7812
2016-09-09T12:22:56.891Z,7936
2016-09-09T12:23:56.923Z,7844
2016-09-09T12:24:56.960Z,7812
2016-09-09T12:25:57.043Z,7756
2016-09-09T12:26:57.017Z,7836
2016-09-09T12:27:57.060Z,7972
2016-09-09T12:28:57.083Z,7992
2016-09-09T12:29:57.108Z,7924
2016-09-09T12:31:12.084Z,7724
2016-09-09T12:31:57.187Z,7624
2016-09-09T12:33:12.131Z,7728
2016-09-09T12:33:57.232Z,7980
2016-09-09T12:34:57.272Z,8300
2016-09-09T12:38:57.404Z,8844
2016-09-09T12:39:57.424Z,8680
2016-09-09T12:40:57.468Z,8520
2016-09-09T12:41:57.489Z,8412
2016-09-09T12:42:57.522Z,8268
2016-09-09T12:43:57.551Z,8388
2016-09-09T12:44:57.587Z,7560
2016-09-09T12:45:57.613Z,8432
2016-09-09T12:47:13.671Z,8004
2016-09-09T12:47:57.671Z,7800
2016-09-09T12:48:57.712Z,8004
2016-09-09T12:49:58.047Z,8456
2016-09-09T12:50:57.767Z,8192
2016-09-09T12:51:57.805Z,8172
2016-09-09T12:52:57.840Z,8288
2016-09-09T12:53:57.889Z,8160
2016-09-09T12:54:57.901Z,8056
2016-09-09T12:55:57.936Z,8020
2016-09-09T12:56:57.969Z,8012
2016-09-09T12:57:58.000Z,7668
2016-09-09T12:58:58.329Z,7280
2016-09-09T13:00:12.984Z,7088
2016-09-09T13:00:58.097Z,7104
2016-09-09T13:01:58.121Z,7236
2016-09-09T13:03:13.129Z,7416
2016-09-09T13:04:13.113Z,7584
2016-09-09T13:04:58.213Z,7524
2016-09-09T13:06:13.185Z,7472
2016-09-09T13:06:58.279Z,7492
2016-09-09T13:07:58.310Z,7452
2016-09-09T13:08:58.339Z,7620
2016-09-09T13:10:58.410Z,7700
2016-09-09T13:11:58.436Z,7668
2016-09-09T13:12:58.473Z,7660
2016-09-09T13:13:58.499Z,6460
2016-09-09T13:14:58.534Z,7744
2016-09-09T13:16:13.490Z,7844
2016-09-09T13:16:58.605Z,7892
2016-09-09T13:18:13.550Z,7852
2016-09-09T13:19:13.682Z,7820
2016-09-09T13:19:58.686Z,7900
2016-09-09T13:20:58.726Z,7900
2016-09-09T13:21:58.750Z,7876
2016-09-09T13:22:58.790Z,7868
2016-09-09T13:23:58.815Z,7888
2016-09-09T13:24:58.852Z,7924
2016-09-09T13:27:58.943Z,8028
2016-09-09T13:28:58.971Z,7828
2016-09-09T13:29:59.004Z,7784
2016-09-09T13:31:14.536Z,7996
2016-09-09T13:31:59.072Z,8052
2016-09-09T13:32:59.391Z,8072
2016-09-09T13:33:59.139Z,8004
2016-09-09T13:34:59.158Z,7904
2016-09-09T13:35:59.197Z,7824
2016-09-09T13:36:59.233Z,7772
2016-09-09T13:38:59.292Z,7592
2016-09-09T13:39:59.328Z,7472
2016-09-09T13:40:59.349Z,7300
2016-09-09T13:41:59.382Z,7160
2016-09-09T13:43:14.351Z,6988
2016-09-09T13:44:14.381Z,6792
2016-09-09T13:44:59.482Z,6756
2016-09-09T13:45:59.521Z,6712
2016-09-09T13:47:14.522Z,6692
2016-09-09T13:47:59.583Z,6748
2016-09-09T13:49:14.530Z,6720
2016-09-09T13:51:14.595Z,6332
2016-09-09T13:51:59.706Z,6288
2016-09-09T13:52:59.731Z,6192
2016-09-09T13:53:59.773Z,6108
2016-09-09T13:54:59.793Z,6056
2016-09-09T13:56:59.864Z,6264
2016-09-09T13:57:59.898Z,6352
2016-09-09T13:59:14.856Z,6388
2016-09-09T14:01:00.001Z,6456
2016-09-09T14:02:00.018Z,6312
2016-09-09T14:03:14.975Z,6392
2016-09-09T14:04:15.005Z,6352
2016-09-09T14:05:00.107Z,6440
2016-09-09T14:06:15.072Z,6824
2016-09-09T14:07:15.099Z,6952
2016-09-09T14:08:00.218Z,6944
2016-09-09T14:10:00.271Z,6684
2016-09-09T14:11:00.311Z,6660
2016-09-09T14:12:00.333Z,6508
2016-09-09T14:13:00.367Z,6628
2016-09-09T14:14:00.390Z,6744
2016-09-09T14:15:00.426Z,6588
2016-09-09T14:16:00.457Z,6360
2016-09-09T14:17:00.499Z,6092
2016-09-09T14:18:15.451Z,4652
2016-09-09T14:20:00.576Z,6196
2016-09-09T14:21:00.627Z,6028
2016-09-09T14:23:00.681Z,6028
2016-09-09T14:24:00.711Z,6020
2016-09-09T14:25:00.739Z,5892
2016-09-09T14:26:00.781Z,5860
2016-09-09T14:27:00.802Z,4508
2016-09-09T14:28:00.843Z,4796
2016-09-09T14:29:00.880Z,6204
2016-09-09T14:30:00.901Z,6272
2016-09-09T14:31:00.932Z,6400
2016-09-09T14:32:00.953Z,6464
2016-09-09T14:33:00.990Z,6496
2016-09-09T14:34:15.948Z,6360
2016-09-09T14:35:15.986Z,6264
2016-09-09T14:36:01.080Z,6348
2016-09-09T14:37:01.120Z,6512
2016-09-09T14:38:16.073Z,6576
2016-09-09T14:39:01.493Z,6456
2016-09-09T14:40:01.207Z,6384